Aviation Digital Data Service (ADDS)

Output produced by METARs form (0018 UTC 07 July 2015)
found at http://aviationweather.gov/adds/metars/
 
KLEB 062322Z 0700/0724 17004KT P6SM SKC 
     FM070600 00000KT 4SM BR SCT250 
     FM071200 19005KT 6SM HZ OVC050 
     FM071400 20008KT 4SM -SHRA OVC015